CheckWX is a tool to help pilots better visualize weather data.  It is not intended as a substitute for an official pre-flight weather briefing.

21:36:11 UTC

KGPT TAF
Gulfport-Biloxi International Airport
Gulfport, Mississippi, USA
KGPT 201720Z 2018/2118 VRB04KT P6SM SKC FM210100 22005KT P6SM SKC FM210500 25005KT P6SM SKC FM210800 29006KT P6SM SKC FM211100 33007KT P6SM SKC

Mar-20@
18:00 UTC

Mar-20 @ 18:00 UTC

Mar-21@
01:00 UTC

Mar-21 @ 01:00 UTC

KGPT 201720Z 2018/2118 VRB04KT P6SM SKC
Wind
  • Variable at 4 KTS
Cloud Levels
  • Clear skies

Mar-21@
01:00 UTC

Mar-21 @ 01:00 UTC

Mar-21@
05:00 UTC

Mar-21 @ 05:00 UTC

FM210100 22005KT P6SM SKC

From

From Standard forecast or significant change

Wind
  • 220° at 5 KTS
Cloud Levels
  • Clear skies

Mar-21@
05:00 UTC

Mar-21 @ 05:00 UTC

Mar-21@
08:00 UTC

Mar-21 @ 08:00 UTC

FM210500 25005KT P6SM SKC

From

From Standard forecast or significant change

Wind
  • 250° at 5 KTS
Cloud Levels
  • Clear skies

Mar-21@
08:00 UTC

Mar-21 @ 08:00 UTC

Mar-21@
11:00 UTC

Mar-21 @ 11:00 UTC

FM210800 29006KT P6SM SKC

From

From Standard forecast or significant change

Wind
  • 290° at 6 KTS
Cloud Levels
  • Clear skies

Mar-21@
11:00 UTC

Mar-21 @ 11:00 UTC

Mar-21@
18:00 UTC

Mar-21 @ 18:00 UTC

FM211100 33007KT P6SM SKC

From

From Standard forecast or significant change

Wind
  • 330° at 7 KTS
Cloud Levels
  • Clear skies